Time;durP1;ratioP1;P1;durP2;ratioP2;P2;SDS_P1;SDS_P2;PMS_P1;PMS_P2;Temp;Humidity;BMP_temperature;BMP_pressure;BME280_temperature;BME280_humidity;BME280_pressure;Samples;Min_cycle;Max_cycle;Signal;HPM_P1;HPM_P2
2022/11/08 00:01:30;;;;;;;7.43;6.00;;;7.80;99.90;;;8.00;86.99;97995.13;4969671;28;20484;-71
2022/11/08 00:03:06;;;;;;;7.90;6.80;;;7.60;99.90;;;7.52;90.33;98002.06;4982916;28;20457;-73
2022/11/08 00:13:59;;;;;;;7.60;6.67;;;7.30;99.90;;;7.64;89.67;97992.41;4983632;28;20496;-73
2022/11/08 00:16:27;;;;;;;8.43;6.37;;;7.50;99.90;;;7.57;89.37;97959.28;4986713;28;20489;-72
2022/11/08 00:18:54;;;;;;;11.67;6.67;;;7.60;99.90;;;7.77;88.93;97986.31;4966927;28;20541;-73
2022/11/08 00:21:23;;;;;;;8.43;5.90;;;7.60;99.90;;;7.03;88.43;97878.31;4982177;28;20488;-73
2022/11/08 00:23:50;;;;;;;7.07;5.87;;;7.50;99.90;;;7.71;88.91;97980.88;4981395;28;20474;-72
2022/11/08 00:26:17;;;;;;;8.40;6.23;;;7.50;99.90;;;7.53;89.20;97967.94;4968876;28;20453;-72
2022/11/08 00:28:45;;;;;;;9.60;6.70;;;7.40;99.90;;;7.49;90.07;97984.47;4990994;28;20455;-73
2022/11/08 00:31:12;;;;;;;7.33;6.20;;;7.30;99.90;;;7.30;90.68;97959.09;4989925;28;20468;-73
2022/11/08 00:33:40;;;;;;;7.53;5.90;;;7.30;99.90;;;7.48;90.36;97981.97;4989347;28;20458;-73
2022/11/08 00:36:07;;;;;;;7.13;6.40;;;7.30;99.90;;;7.63;90.08;97988.06;4967713;28;20473;-73
2022/11/08 00:38:36;;;;;;;7.80;6.33;;;7.40;99.90;;;7.38;89.54;97933.94;4980906;28;20469;-72
2022/11/08 00:41:03;;;;;;;15.80;6.10;;;7.50;99.90;;;7.62;89.21;97982.91;4987060;28;20470;-73
2022/11/08 00:43:30;;;;;;;6.27;5.50;;;7.40;99.90;;;7.58;89.49;97987.84;4973950;28;21173;-73
2022/11/08 00:45:57;;;;;;;9.10;6.30;;;7.40;99.90;;;7.65;89.15;97977.94;4968854;28;20470;-73
2022/11/08 00:48:25;;;;;;;9.13;6.00;;;7.50;99.90;;;7.63;89.20;97988.06;4986890;28;20523;-73
2022/11/08 00:50:52;;;;;;;9.27;6.13;;;7.50;99.90;;;7.59;88.83;97988.69;4974689;28;20464;-71
2022/11/08 00:53:19;;;;;;;8.43;6.20;;;7.40;99.90;;;7.62;89.16;97991.78;4990008;28;20479;-73
2022/11/08 00:55:48;;;;;;;7.83;5.80;;;7.40;99.90;;;7.29;88.89;97932.44;4985196;28;20516;-73
2022/11/08 00:58:15;;;;;;;7.63;5.20;;;7.50;99.90;;;7.60;89.00;97991.16;4988507;28;20488;-72
2022/11/08 01:00:43;;;;;;;5.57;5.07;;;7.40;99.90;;;7.62;89.31;97988.28;4986612;28;20480;-71
2022/11/08 01:03:22;;;;;;;6.10;5.50;;;7.40;99.90;;;7.60;89.36;97985.78;4962748;28;20863;-72
2022/11/08 01:05:51;;;;;;;7.10;5.23;;;7.50;99.90;;;7.56;88.88;97980.97;4981648;28;20488;-73
2022/11/08 01:08:20;;;;;;;10.10;5.77;;;7.30;99.90;;;7.59;88.69;97983.31;4973544;28;20558;-71
2022/11/08 01:10:51;;;;;;;8.73;5.40;;;7.30;99.90;;;7.51;89.15;97981.59;4969113;28;20480;-73
2022/11/08 01:13:20;;;;;;;9.63;5.07;;;7.30;99.90;;;7.45;89.39;97977.00;4985609;28;20457;-72
2022/11/08 01:15:47;;;;;;;7.67;5.43;;;7.30;99.90;;;7.39;89.19;97967.03;4958050;28;20504;-72
2022/11/08 01:18:18;;;;;;;7.60;5.40;;;7.30;99.90;;;7.45;89.41;97971.63;4990088;28;20507;-75
2022/11/08 01:20:49;;;;;;;7.60;4.93;;;7.30;99.90;;;7.46;88.77;97973.28;4974574;28;20457;-74
2022/11/08 01:23:17;;;;;;;6.80;5.70;;;7.30;99.90;;;7.33;88.71;97980.22;4981204;28;20478;-75
2022/11/08 01:25:49;;;;;;;8.27;5.90;;;7.30;99.90;;;7.44;88.99;97972.63;4972289;28;20472;-74
2022/11/08 01:28:17;;;;;;;8.83;5.90;;;7.30;99.90;;;7.35;89.88;97972.81;4992839;28;20480;-72
2022/11/08 01:30:45;;;;;;;5.87;5.10;;;7.30;99.90;;;7.35;89.90;97971.97;4975172;28;20938;-75
2022/11/08 01:33:13;;;;;;;13.63;5.07;;;7.40;99.90;;;7.40;89.11;97971.38;4961501;28;21005;-73
2022/11/08 01:35:44;;;;;;;8.73;5.00;;;7.40;99.90;;;7.52;89.07;97977.88;4957531;28;20498;-74
2022/11/08 01:38:11;;;;;;;6.00;5.40;;;7.40;99.90;;;7.40;88.75;97979.44;4970925;28;20482;-74
2022/11/08 01:40:43;;;;;;;6.83;5.40;;;7.30;99.90;;;7.40;88.94;97987.50;4991965;28;20456;-74
2022/11/08 01:43:37;;;;;;;7.63;5.63;;;7.30;99.90;;;7.34;89.08;97997.19;4975886;28;20515;-73
2022/11/08 01:46:40;;;;;;;8.37;4.90;;;7.30;99.90;;;7.38;89.02;97982.31;4983842;28;20458;-73
2022/11/08 01:49:33;;;;;;;6.87;5.53;;;7.30;99.90;;;7.30;89.37;97969.84;4971350;28;20460;-74
2022/11/08 01:52:12;;;;;;;5.63;4.87;;;7.20;99.90;;;7.30;89.44;97975.22;4983789;28;20957;-75
2022/11/08 01:54:46;;;;;;;6.00;5.40;;;7.20;99.90;;;7.19;89.16;97949.72;4989120;28;20448;-75
2022/11/08 01:57:18;;;;;;;5.40;4.90;;;7.20;99.90;;;7.27;89.52;97970.25;4985620;28;20483;-72
2022/11/08 01:59:49;;;;;;;7.47;5.40;;;7.20;99.90;;;7.27;89.21;97959.50;4969343;28;20491;-74
2022/11/08 02:02:17;;;;;;;6.20;5.07;;;7.20;99.90;;;7.21;89.86;97952.22;4965552;28;20456;-74
2022/11/08 02:04:45;;;;;;;7.33;6.50;;;7.20;99.90;;;6.90;89.59;97910.44;4986161;28;20464;-73
2022/11/08 02:07:14;;;;;;;7.83;5.73;;;7.20;99.90;;;7.27;89.23;97958.66;4986140;28;20463;-74
2022/11/08 02:09:44;;;;;;;7.00;5.00;;;7.10;99.90;;;7.23;88.94;97958.25;4973991;28;20464;-74
2022/11/08 02:12:13;;;;;;;6.93;5.47;;;7.20;99.90;;;7.20;89.57;97947.84;4973206;28;20467;-74
2022/11/08 02:14:40;;;;;;;6.20;5.60;;;7.10;99.90;;;7.21;90.15;97941.47;4985992;28;20941;-74
2022/11/08 02:17:09;;;;;;;6.17;5.30;;;7.20;99.90;;;7.19;89.70;97938.13;4967806;28;20484;-74
2022/11/08 02:19:42;;;;;;;5.70;5.07;;;7.20;99.90;;;7.23;89.43;97931.38;4965328;28;20510;-74
2022/11/08 02:22:21;;;;;;;7.00;5.70;;;7.20;99.90;;;7.14;89.79;97929.84;4960548;28;20507;-74
2022/11/08 02:24:49;;;;;;;8.20;5.50;;;7.20;99.90;;;6.99;89.96;97903.91;4981929;28;20467;-70
2022/11/08 02:27:17;;;;;;;9.00;5.40;;;7.20;99.90;;;7.06;90.31;97915.53;4984310;28;20464;-72
2022/11/08 02:29:44;;;;;;;7.90;5.67;;;7.20;99.90;;;6.63;89.84;97843.09;4972519;28;20460;-73
2022/11/08 02:32:11;;;;;;;5.80;5.00;;;7.20;99.90;;;7.11;89.80;97911.44;4988237;28;20459;-73
2022/11/08 02:34:45;;;;;;;5.83;5.20;;;7.20;99.90;;;7.11;89.55;97906.88;4965221;28;20556;-71
2022/11/08 02:37:16;;;;;;;11.63;6.10;;;7.20;99.90;;;7.11;89.25;97916.81;4983334;28;20542;-72
2022/11/08 02:39:45;;;;;;;9.97;5.90;;;7.10;99.90;;;7.15;89.33;97923.44;4989804;28;20462;-73
2022/11/08 02:42:17;;;;;;;5.67;4.97;;;7.10;99.90;;;7.03;89.50;97907.03;4989585;28;20964;-74
2022/11/08 02:44:44;;;;;;;8.10;5.37;;;7.10;99.90;;;6.90;89.40;97883.56;4961933;28;20464;-72
2022/11/08 02:47:12;;;;;;;6.43;5.37;;;7.10;99.90;;;7.05;89.37;97903.13;4976799;28;20486;-71
2022/11/08 02:49:39;;;;;;;8.37;5.77;;;7.10;99.90;;;7.00;89.51;97904.75;4984129;28;20449;-77
2022/11/08 02:52:07;;;;;;;8.40;5.23;;;7.10;99.90;;;6.92;90.33;97897.66;4975081;28;20564;-71
2022/11/08 02:54:34;;;;;;;7.60;5.57;;;7.00;99.90;;;6.97;90.04;97911.31;4976581;28;20514;-71
2022/11/08 02:57:02;;;;;;;6.67;5.40;;;7.00;99.90;;;6.95;90.28;97900.75;4984088;28;20476;-73
2022/11/08 02:59:31;;;;;;;9.20;5.63;;;7.00;99.90;;;6.86;89.55;97888.53;4972569;28;20459;-72
2022/11/08 03:01:58;;;;;;;6.60;4.90;;;7.00;99.90;;;6.84;90.77;97905.84;4966883;28;20460;-72
2022/11/08 03:04:25;;;;;;;6.17;5.33;;;6.90;99.90;;;6.65;90.30;97886.69;4982362;28;20521;-73
2022/11/08 03:06:52;;;;;;;7.57;5.90;;;6.80;99.90;;;6.77;90.06;97893.22;4974127;28;20476;-72
2022/11/08 03:09:19;;;;;;;6.30;5.30;;;6.80;99.90;;;6.68;90.13;97889.00;4984079;28;20469;-74
2022/11/08 03:11:46;;;;;;;9.90;5.90;;;6.80;99.90;;;6.66;90.25;97896.41;4985915;28;20464;-73
2022/11/08 03:14:14;;;;;;;7.50;5.70;;;6.80;99.90;;;6.69;90.65;97903.25;4964766;28;20542;-74
2022/11/08 03:16:42;;;;;;;7.77;5.67;;;6.80;99.90;;;6.60;90.75;97889.13;4987050;28;20980;-73
2022/11/08 03:19:11;;;;;;;8.07;5.23;;;6.80;99.90;;;6.64;90.72;97907.31;4960991;28;20493;-72
2022/11/08 03:21:39;;;;;;;6.60;6.00;;;6.70;99.90;;;6.66;90.67;97910.66;4981140;28;20467;-70
2022/11/08 03:24:07;;;;;;;7.80;5.47;;;6.70;99.90;;;6.62;90.93;97909.38;4981769;28;20499;-72
2022/11/08 03:26:35;;;;;;;7.30;5.77;;;6.70;99.90;;;6.36;90.48;97859.78;4981647;28;20460;-73
2022/11/08 03:29:02;;;;;;;7.13;6.17;;;6.70;99.90;;;6.57;90.87;97900.25;4968192;28;20467;-73
2022/11/08 03:31:31;;;;;;;12.03;7.30;;;6.70;99.90;;;6.55;90.88;97908.50;4966485;28;20471;-73
2022/11/08 03:34:00;;;;;;;7.20;5.70;;;6.70;99.90;;;6.44;91.08;97896.41;4970084;28;20592;-73
2022/11/08 03:36:27;;;;;;;8.87;5.70;;;6.60;99.90;;;6.52;91.14;97901.66;4982143;28;20460;-72
2022/11/08 03:38:54;;;;;;;7.83;6.03;;;6.60;99.90;;;6.45;91.81;97898.09;4971723;28;20495;-74
2022/11/08 03:41:22;;;;;;;6.90;6.20;;;6.70;99.90;;;6.48;91.00;97896.84;4973242;28;20456;-74
2022/11/08 03:43:49;;;;;;;9.23;6.67;;;6.60;99.90;;;6.01;91.30;97834.69;4974499;28;20463;-71
2022/11/08 03:46:16;;;;;;;8.23;5.30;;;6.60;99.90;;;6.40;91.49;97891.63;4992792;28;20943;-71
2022/11/08 03:48:43;;;;;;;7.40;5.73;;;6.60;99.90;;;6.41;90.82;97880.69;4979914;28;20480;-73
2022/11/08 03:51:11;;;;;;;8.67;5.80;;;6.60;99.90;;;6.42;91.42;97898.44;4977954;28;20477;-72
2022/11/08 03:53:39;;;;;;;7.40;6.27;;;6.50;99.90;;;6.37;91.18;97893.69;4973683;28;20539;-74
2022/11/08 03:56:07;;;;;;;6.03;5.43;;;6.50;99.90;;;6.38;91.51;97902.53;4965894;28;20457;-73
2022/11/08 03:58:35;;;;;;;10.10;6.73;;;6.50;99.90;;;6.34;91.32;97898.59;4975867;28;20535;-72
2022/11/08 04:01:07;;;;;;;9.17;6.30;;;6.50;99.90;;;6.43;91.47;97905.47;4988970;28;20545;-72
2022/11/08 04:03:34;;;;;;;8.23;7.07;;;6.50;99.90;;;6.35;91.25;97909.13;4984556;28;20455;-72
2022/11/08 04:06:01;;;;;;;7.20;6.50;;;6.40;99.90;;;6.27;91.27;97892.31;4978663;28;21058;-73
2022/11/08 04:08:30;;;;;;;8.87;6.13;;;6.40;99.90;;;6.31;91.54;97885.56;4977627;28;20834;-73
2022/11/08 04:15:13;;;;;;;8.47;6.73;;;6.40;99.90;;;6.28;91.61;97893.97;4993578;28;20464;-73
2022/11/08 04:16:41;;;;;;;10.50;7.00;;;6.50;99.90;;;6.18;91.08;97876.34;4950633;28;20472;-73
2022/11/08 04:21:54;;;;;;;8.63;6.50;;;6.40;99.90;;;6.30;91.62;97895.44;4991389;28;20549;-74
2022/11/08 04:24:23;;;;;;;7.43;6.57;;;6.40;99.90;;;6.33;91.48;97894.25;4992951;28;20460;-73
2022/11/08 04:26:50;;;;;;;7.70;7.00;;;6.30;99.90;;;6.32;91.27;97903.31;4972701;28;20514;-72
2022/11/08 04:29:17;;;;;;;10.30;8.10;;;6.30;99.90;;;6.29;91.99;97895.63;4991890;28;20456;-75
2022/11/08 04:31:45;;;;;;;9.10;7.60;;;6.40;99.90;;;6.29;91.81;97892.94;4986560;28;20456;-72
2022/11/08 04:34:13;;;;;;;8.17;7.03;;;6.40;99.90;;;6.23;91.35;97884.66;4965720;28;20468;-74
2022/11/08 04:36:40;;;;;;;11.80;7.53;;;6.40;99.90;;;6.03;91.76;97862.16;4988298;28;21360;-73
2022/11/08 04:39:08;;;;;;;10.97;8.87;;;6.40;99.90;;;6.24;92.38;97878.25;4968033;28;20488;-74
2022/11/08 04:41:36;;;;;;;8.30;6.97;;;6.40;99.90;;;6.06;92.35;97869.81;4968837;28;20582;-72
2022/11/08 04:44:04;;;;;;;10.40;7.83;;;6.30;99.90;;;6.25;91.83;97887.16;4969115;28;20471;-74
2022/11/08 04:46:31;;;;;;;9.30;7.47;;;6.30;99.90;;;6.08;92.63;97863.25;4976374;28;20835;-74
2022/11/08 04:49:00;;;;;;;10.40;7.37;;;6.30;99.90;;;6.19;92.34;97878.00;4985095;28;20482;-72
2022/11/08 04:51:31;;;;;;;10.70;6.90;;;6.30;99.90;;;5.55;92.01;97782.19;4988844;28;20456;-73
2022/11/08 04:54:00;;;;;;;8.03;7.23;;;6.30;99.90;;;6.17;91.88;97874.69;4987019;28;20467;-74
2022/11/08 04:56:29;;;;;;;8.43;7.47;;;6.30;99.90;;;6.15;91.20;97871.38;4983052;28;21086;-73
2022/11/08 04:59:00;;;;;;;9.83;7.80;;;6.20;99.90;;;6.12;91.76;97868.22;4969246;28;22337;-72
2022/11/08 05:01:31;;;;;;;11.53;7.67;;;6.20;99.90;;;6.06;92.35;97862.59;4987394;28;20467;-71
2022/11/08 05:03:58;;;;;;;15.50;7.80;;;6.20;99.90;;;6.00;92.10;97851.78;4971993;28;20472;-73
2022/11/08 05:06:28;;;;;;;9.87;8.30;;;6.10;99.90;;;6.08;91.80;97874.00;4974390;28;20494;-73
2022/11/08 05:08:57;;;;;;;10.10;7.67;;;6.10;99.90;;;6.05;92.01;97876.22;4964793;28;20468;-72
2022/11/08 05:11:26;;;;;;;8.17;6.73;;;6.10;99.90;;;5.48;91.44;97769.56;4984277;28;20461;-73
2022/11/08 05:13:54;;;;;;;8.77;7.30;;;6.10;99.90;;;6.01;91.93;97856.13;4989831;28;21267;-72
2022/11/08 05:16:25;;;;;;;9.40;7.60;;;6.00;99.90;;;5.88;92.19;97848.75;4985942;28;20472;-74
2022/11/08 05:18:53;;;;;;;8.80;7.37;;;6.00;99.90;;;6.00;91.92;97851.78;4984790;28;20535;-73
2022/11/08 05:24:11;;;;;;;9.17;8.07;;;6.00;99.90;;;5.94;92.15;97848.81;4970215;28;20467;-72
2022/11/08 05:26:42;;;;;;;12.23;7.47;;;6.00;99.90;;;5.95;91.98;97845.13;4991196;28;20463;-73
2022/11/08 05:29:10;;;;;;;9.73;8.70;;;6.00;99.90;;;5.93;92.35;97849.84;4993472;28;20455;-71
2022/11/08 05:31:39;;;;;;;9.30;8.10;;;6.00;99.90;;;5.90;91.65;97831.47;4986921;28;20459;-72
2022/11/08 05:34:06;;;;;;;10.17;7.80;;;6.00;99.90;;;5.96;91.76;97852.16;4972157;28;20454;-73
2022/11/08 05:36:34;;;;;;;9.17;8.17;;;6.00;99.90;;;5.92;91.61;97848.19;4981574;28;20464;-73
2022/11/08 05:39:01;;;;;;;15.80;8.80;;;6.00;99.90;;;5.89;91.73;97861.13;4972966;28;20534;-69
2022/11/08 05:41:28;;;;;;;9.73;8.33;;;5.90;99.90;;;5.88;91.74;97849.59;4991343;28;20522;-69
2022/11/08 05:43:56;;;;;;;14.67;8.43;;;5.90;99.90;;;5.82;91.72;97850.34;4970946;28;20461;-67
2022/11/08 05:46:24;;;;;;;9.90;8.80;;;6.00;99.90;;;5.82;91.96;97845.81;4979007;28;20468;-69
2022/11/08 05:48:53;;;;;;;11.67;8.00;;;5.90;99.90;;;5.44;92.06;97784.34;4988991;28;20460;-69
2022/11/08 05:51:21;;;;;;;10.80;8.50;;;5.90;99.90;;;5.85;91.91;97851.81;4969399;28;20464;-68
2022/11/08 05:53:49;;;;;;;10.33;8.37;;;5.90;99.90;;;5.79;91.78;97845.34;4985475;28;20491;-67
2022/11/08 05:56:18;;;;;;;9.60;8.60;;;5.80;99.90;;;5.74;91.68;97842.41;4981760;28;20475;-68
2022/11/08 05:58:45;;;;;;;11.60;8.63;;;5.80;99.90;;;5.71;92.19;97838.25;4990078;28;20502;-69
2022/11/08 06:01:15;;;;;;;9.80;8.37;;;5.80;99.90;;;5.74;91.83;97831.69;4965799;28;20461;-68
2022/11/08 06:03:42;;;;;;;11.13;8.87;;;5.80;99.90;;;5.73;91.51;97844.25;4981290;28;20496;-69
2022/11/08 06:06:13;;;;;;;10.23;9.03;;;5.80;99.90;;;5.74;91.29;97847.78;4978517;28;20465;-67
2022/11/08 06:08:41;;;;;;;11.07;8.93;;;5.80;99.90;;;5.63;91.55;97833.84;4982243;28;20472;-66
2022/11/08 06:11:11;;;;;;;14.00;8.67;;;5.70;99.90;;;5.32;91.66;97791.22;4968280;28;20504;-72
2022/11/08 06:13:39;;;;;;;10.70;8.33;;;5.80;99.90;;;5.63;91.95;97841.88;4962480;28;20459;-67
2022/11/08 06:16:10;;;;;;;11.67;7.87;;;5.80;99.90;;;5.67;92.42;97845.03;4985106;28;20456;-69
2022/11/08 06:18:38;;;;;;;12.33;8.70;;;5.80;99.90;;;5.63;92.14;97836.50;4978486;28;20976;-67
2022/11/08 06:21:11;;;;;;;15.53;9.00;;;5.80;99.90;;;5.76;92.83;97835.84;4971733;28;20467;-68
2022/11/08 06:23:39;;;;;;;9.67;8.10;;;5.80;99.90;;;5.78;92.11;97841.00;4982870;28;20887;-66
2022/11/08 06:26:07;;;;;;;14.03;8.37;;;5.90;99.90;;;5.79;91.67;97840.00;4980994;28;20465;-68
2022/11/08 06:28:35;;;;;;;11.13;8.83;;;5.90;99.90;;;5.79;91.56;97850.72;4980976;28;20550;-68
2022/11/08 06:31:03;;;;;;;11.87;9.00;;;5.90;99.90;;;5.75;91.97;97842.22;4975936;28;22633;-70
2022/11/08 06:33:31;;;;;;;15.90;9.37;;;6.00;99.90;;;6.06;90.91;97851.84;4968579;28;20479;-70
2022/11/08 06:35:59;;;;;;;8.97;7.60;;;6.10;99.90;;;5.87;91.34;97852.44;4965295;28;20479;-71
2022/11/08 06:38:27;;;;;;;10.70;8.30;;;6.00;99.90;;;5.75;91.25;97844.91;4984274;28;20494;-71
2022/11/08 06:40:55;;;;;;;9.57;8.10;;;6.00;99.90;;;5.82;91.19;97851.19;4983410;28;20459;-70
2022/11/08 06:43:22;;;;;;;12.17;8.63;;;6.00;99.90;;;5.86;90.96;97857.00;4985221;28;20476;-69
2022/11/08 06:45:49;;;;;;;9.13;7.93;;;6.00;99.90;;;5.91;90.96;97861.78;4968131;28;20471;-71
2022/11/08 06:48:16;;;;;;;13.43;8.70;;;6.00;99.90;;;6.04;90.11;97863.81;4991580;28;21291;-71
2022/11/08 06:50:44;;;;;;;11.63;8.80;;;6.10;99.90;;;6.03;90.47;97864.84;4984129;28;20523;-71
2022/11/08 06:53:13;;;;;;;8.53;7.63;;;6.10;99.90;;;6.07;90.14;97864.28;4980148;28;20923;-69
2022/11/08 06:55:42;;;;;;;12.97;8.83;;;6.10;99.90;;;6.24;89.70;97855.97;4967852;28;20839;-70
2022/11/08 06:58:11;;;;;;;10.10;7.80;;;6.20;99.90;;;6.31;89.59;97864.09;4967871;28;21004;-70
2022/11/08 07:00:39;;;;;;;12.70;8.87;;;6.30;99.90;;;6.36;89.38;97858.97;4981984;28;20472;-72
2022/11/08 07:03:06;;;;;;;9.50;7.53;;;6.40;99.90;;;6.23;89.31;97857.81;4982310;28;20502;-70
2022/11/08 07:05:35;;;;;;;10.53;6.97;;;6.40;99.90;;;6.32;89.85;97855.03;4960902;28;20919;-69
2022/11/08 07:08:04;;;;;;;12.80;8.30;;;6.40;99.90;;;6.38;89.14;97854.25;4976421;28;20818;-67
2022/11/08 07:10:33;;;;;;;9.73;7.60;;;6.50;99.90;;;6.41;89.18;97853.03;4966669;28;20455;-69
2022/11/08 07:13:04;;;;;;;9.33;7.80;;;6.50;99.90;;;6.37;89.02;97852.59;4978150;28;20515;-70
2022/11/08 07:15:33;;;;;;;14.47;8.40;;;6.50;99.90;;;6.49;88.21;97861.78;4980978;28;20470;-69
2022/11/08 07:18:01;;;;;;;10.20;7.53;;;6.60;99.90;;;6.39;88.41;97853.22;4975671;28;20477;-69
2022/11/08 07:20:29;;;;;;;10.47;7.43;;;6.60;99.90;;;6.28;88.70;97853.72;4970259;28;20908;-68
2022/11/08 07:22:57;;;;;;;11.40;7.57;;;6.50;99.80;;;6.26;88.54;97842.34;4973827;28;20995;-69
2022/11/08 07:25:25;;;;;;;9.20;8.23;;;6.50;99.90;;;6.40;88.38;97851.38;4969836;28;20457;-71
2022/11/08 07:27:55;;;;;;;11.03;7.80;;;6.50;99.90;;;6.60;88.33;97854.25;4977887;28;20549;-68
2022/11/08 07:30:24;;;;;;;10.43;7.77;;;6.60;99.90;;;6.56;86.97;97844.88;4972928;28;20570;-69
2022/11/08 07:32:52;;;;;;;9.20;8.00;;;6.60;99.90;;;6.55;87.57;97840.53;4957417;28;20471;-68
2022/11/08 07:35:19;;;;;;;10.70;7.60;;;6.70;99.60;;;6.67;86.73;97836.31;4957371;28;20463;-69
2022/11/08 07:37:47;;;;;;;11.47;7.80;;;6.80;99.10;;;6.64;86.95;97844.75;4979637;28;20918;-69
2022/11/08 07:40:14;;;;;;;11.17;7.20;;;6.80;97.90;;;6.80;86.49;97841.78;4964582;28;20500;-71
2022/11/08 07:42:42;;;;;;;10.90;6.90;;;6.90;98.20;;;6.99;86.25;97860.09;4976614;28;20497;-69
2022/11/08 07:45:11;;;;;;;8.80;7.30;;;7.00;97.50;;;6.96;85.56;97855.94;4961272;28;20776;-69
2022/11/08 07:47:39;;;;;;;8.17;7.37;;;7.10;95.80;;;7.09;85.25;97856.03;4974972;28;20457;-69
2022/11/08 07:50:08;;;;;;;9.80;7.37;;;7.20;95.70;;;7.29;86.11;97852.63;4976061;28;20457;-68
2022/11/08 07:52:35;;;;;;;10.87;7.53;;;7.30;97.50;;;7.31;84.78;97852.44;4975098;28;20474;-68
2022/11/08 07:55:02;;;;;;;10.10;6.70;;;7.40;95.10;;;7.40;84.09;97855.78;4980517;28;20459;-68
2022/11/08 07:57:30;;;;;;;10.30;7.40;;;7.40;94.40;;;7.51;84.11;97848.00;4979773;28;20461;-69
2022/11/08 07:59:57;;;;;;;13.50;7.50;;;7.50;94.30;;;7.58;83.74;97848.03;4983156;28;20484;-69
2022/11/08 08:02:24;;;;;;;7.80;7.00;;;7.60;93.60;;;7.75;82.96;97851.19;4983573;28;20456;-70
2022/11/08 08:04:53;;;;;;;9.73;6.60;;;7.70;93.30;;;7.85;82.50;97853.50;4963957;28;20476;-68
2022/11/08 08:07:20;;;;;;;8.40;7.00;;;7.80;92.90;;;8.18;83.18;97851.91;4979909;28;21029;-70
2022/11/08 08:09:47;;;;;;;7.57;6.77;;;8.00;94.10;;;8.18;80.76;97851.91;4965656;28;20470;-69
2022/11/08 08:12:14;;;;;;;7.80;6.53;;;8.20;92.00;;;8.05;81.09;97855.41;4978016;28;20512;-68
2022/11/08 08:14:42;;;;;;;11.63;6.63;;;8.20;91.20;;;8.06;81.50;97857.06;4977961;28;21176;-69
2022/11/08 08:17:09;;;;;;;8.33;6.57;;;8.30;91.10;;;8.38;81.32;97841.19;4963770;28;20762;-70
2022/11/08 08:19:36;;;;;;;9.03;7.30;;;8.40;91.80;;;8.73;79.85;97835.66;4964805;28;21029;-69
2022/11/08 08:22:05;;;;;;;8.50;6.30;;;8.60;92.00;;;9.00;79.95;97827.53;4960240;28;20453;-68
2022/11/08 08:24:32;;;;;;;8.63;5.83;;;8.90;91.20;;;9.27;77.91;97840.94;4980511;28;20475;-69
2022/11/08 08:26:59;;;;;;;7.43;6.50;;;9.20;90.20;;;9.39;77.50;97840.28;4980051;28;20520;-69
2022/11/08 08:29:27;;;;;;;6.63;6.03;;;9.30;89.60;;;9.64;76.27;97840.41;4982483;28;20464;-70
2022/11/08 08:31:54;;;;;;;5.83;5.33;;;9.60;88.70;;;9.92;75.95;97844.66;4966383;28;20457;-69
2022/11/08 08:34:21;;;;;;;7.47;6.50;;;9.80;88.30;;;10.46;74.54;97845.19;4974126;28;20465;-69
2022/11/08 08:36:48;;;;;;;7.47;5.40;;;10.10;86.60;;;10.43;73.90;97851.03;4963727;28;20469;-71
2022/11/08 08:39:16;;;;;;;8.50;5.17;;;10.30;85.40;;;10.71;73.61;97852.47;4959163;28;20481;-70
2022/11/08 08:41:44;;;;;;;5.73;5.13;;;10.50;85.10;;;11.03;71.18;97835.34;4980140;28;20471;-69
2022/11/08 08:44:11;;;;;;;4.40;4.00;;;10.90;84.30;;;10.90;70.06;97839.81;4979889;28;20460;-70
2022/11/08 08:46:39;;;;;;;4.70;4.20;;;11.00;82.40;;;10.69;71.93;97843.78;4980746;28;20529;-71
2022/11/08 08:49:06;;;;;;;5.23;4.53;;;10.80;82.60;;;10.86;69.88;97844.03;4970308;28;20453;-69
2022/11/08 08:51:33;;;;;;;6.13;3.97;;;10.90;82.20;;;11.25;70.16;97835.75;4980618;28;20483;-69
2022/11/08 08:54:00;;;;;;;5.00;4.50;;;11.00;82.60;;;11.60;68.13;97843.28;4967273;28;20820;-70
2022/11/08 08:56:29;;;;;;;5.40;3.97;;;11.30;81.90;;;10.74;68.02;97789.88;4985279;28;20469;-69
2022/11/08 08:58:56;;;;;;;4.37;3.30;;;11.20;80.40;;;11.18;68.99;97826.91;4983895;28;20487;-69
2022/11/08 09:01:24;;;;;;;9.60;3.80;;;11.20;81.30;;;11.29;67.32;97836.13;4981205;28;20473;-68
2022/11/08 09:03:51;;;;;;;3.50;3.20;;;11.20;80.50;;;11.23;67.72;97829.75;4964509;28;20960;-69
2022/11/08 09:06:18;;;;;;;4.27;3.47;;;11.30;80.40;;;11.17;68.12;97833.34;4983499;28;20467;-69
2022/11/08 09:08:45;;;;;;;3.50;3.17;;;11.20;80.30;;;11.28;67.36;97829.88;4977429;28;20463;-79
2022/11/08 09:11:12;;;;;;;3.90;3.60;;;11.20;80.40;;;11.44;66.96;97833.03;4981926;28;20463;-67
2022/11/08 09:13:41;;;;;;;4.47;3.87;;;11.30;80.40;;;11.53;66.86;97830.88;4963761;28;20457;-68
2022/11/08 09:16:09;;;;;;;5.43;4.17;;;11.50;80.10;;;11.67;66.12;97820.72;4964508;28;20515;-67
2022/11/08 09:18:36;;;;;;;5.40;3.20;;;11.60;79.60;;;11.71;66.23;97825.47;4967548;28;20450;-66
2022/11/08 09:21:04;;;;;;;3.57;3.27;;;11.70;79.50;;;11.80;67.33;97820.56;4964548;28;20462;-66
2022/11/08 09:23:32;;;;;;;2.97;2.70;;;11.70;80.10;;;12.12;66.01;97828.47;4981391;28;20468;-68
2022/11/08 09:26:01;;;;;;;3.43;3.07;;;11.90;80.20;;;12.22;64.46;97827.09;4977572;28;20453;-67
2022/11/08 09:28:31;;;;;;;2.93;2.73;;;12.20;79.30;;;12.04;63.82;97810.69;4982919;28;20478;-67
2022/11/08 09:31:03;;;;;;;3.17;2.87;;;12.20;78.30;;;11.82;65.07;97828.44;4979701;28;20463;-67
2022/11/08 09:33:30;;;;;;;4.77;3.30;;;11.90;78.40;;;11.71;66.33;97822.75;4979215;28;20472;-67
2022/11/08 09:35:59;;;;;;;3.40;2.73;;;11.70;78.90;;;11.43;65.03;97831.41;4964271;28;20496;-69
2022/11/08 09:38:27;;;;;;;3.47;2.60;;;11.60;78.00;;;11.62;65.33;97833.06;4980355;28;20461;-66
2022/11/08 09:41:11;;;;;;;4.17;3.23;;;11.60;78.50;;;11.59;64.73;97844.31;4982178;28;20486;-68
2022/11/08 09:44:01;;;;;;;3.43;3.13;;;11.60;78.00;;;11.84;63.96;97842.59;4981204;28;20474;-75
2022/11/08 09:46:39;;;;;;;4.40;2.70;;;11.80;78.10;;;11.57;64.40;97843.72;4961280;28;21060;-67
2022/11/08 09:49:11;;;;;;;3.00;2.80;;;11.70;77.50;;;11.71;63.86;97840.84;4963676;28;20541;-68
2022/11/08 09:51:40;;;;;;;2.90;2.33;;;11.70;77.10;;;11.94;63.09;97826.59;4983676;28;20462;-68
2022/11/08 09:54:15;;;;;;;3.37;2.70;;;11.90;77.00;;;11.68;63.13;97822.38;4979477;28;21231;-66
2022/11/08 09:56:42;;;;;;;2.50;2.30;;;11.80;76.40;;;11.79;63.11;97818.06;4982609;28;20463;-67
2022/11/08 09:59:25;;;;;;;5.40;2.53;;;11.80;76.50;;;11.85;62.96;97820.69;4979897;28;20551;-68
2022/11/08 10:01:53;;;;;;;3.30;2.70;;;11.70;76.50;;;11.97;62.03;97826.16;4979351;28;20529;-66
2022/11/08 10:04:24;;;;;;;3.97;2.10;;;11.80;75.90;;;11.90;61.95;97828.97;4961613;28;20550;-66
2022/11/08 10:07:08;;;;;;;4.50;2.13;;;11.90;75.80;;;12.06;61.46;97834.84;4978050;28;20473;-67
2022/11/08 10:10:09;;;;;;;2.60;2.20;;;11.90;75.50;;;12.03;61.50;97827.13;4963232;28;20459;-68
2022/11/08 10:12:46;;;;;;;3.57;2.30;;;11.90;75.50;;;12.42;60.97;97827.63;4961401;28;20461;-68
2022/11/08 10:15:22;;;;;;;2.97;2.53;;;12.10;75.70;;;12.29;60.57;97835.94;4978897;28;20793;-68
2022/11/08 10:18:19;;;;;;;2.77;2.50;;;12.20;74.90;;;11.88;61.25;97833.75;4979354;28;20631;-68
2022/11/08 10:21:01;;;;;;;3.33;2.37;;;12.00;74.90;;;12.15;61.20;97827.22;4963621;28;20477;-68
2022/11/08 10:23:42;;;;;;;3.70;2.27;;;11.90;75.00;;;11.96;61.42;97819.06;4976231;28;20596;-69
2022/11/08 10:26:15;;;;;;;3.97;3.00;;;12.00;74.70;;;12.08;61.27;97816.47;4961199;28;20457;-68
2022/11/08 10:28:49;;;;;;;2.53;2.33;;;12.10;74.90;;;12.49;60.57;97807.72;4978208;28;20966;-68
2022/11/08 10:31:19;;;;;;;4.93;2.73;;;12.30;75.00;;;12.39;60.30;97808.28;4979267;28;21292;-68
2022/11/08 10:33:52;;;;;;;3.17;2.50;;;12.30;74.30;;;12.35;60.71;97805.22;4961982;28;20494;-68
2022/11/08 10:36:27;;;;;;;3.50;2.50;;;12.30;74.50;;;12.67;59.84;97807.66;4979991;28;20558;-67
2022/11/08 10:39:04;;;;;;;3.00;2.50;;;12.40;74.40;;;12.85;59.11;97803.19;4979677;28;20472;-69
2022/11/08 10:41:39;;;;;;;2.77;2.57;;;12.60;73.90;;;12.90;58.78;97806.00;4981664;28;20570;-68
2022/11/08 10:44:12;;;;;;;2.87;2.60;;;12.70;73.50;;;13.06;58.49;97809.06;4979383;28;20618;-68
2022/11/08 10:46:43;;;;;;;4.10;2.30;;;12.80;73.60;;;13.15;58.56;97813.06;4979653;28;20513;-67
2022/11/08 10:49:19;;;;;;;3.60;2.60;;;12.90;73.50;;;13.05;58.83;97808.25;4977807;28;20926;-67
2022/11/08 10:51:49;;;;;;;3.60;2.80;;;12.90;73.50;;;12.99;58.42;97810.00;4960533;28;20461;-67
2022/11/08 10:54:51;;;;;;;3.23;2.37;;;12.90;73.10;;;12.93;58.41;97805.50;4979547;28;20995;-67